Time,TemperatureF,DewpointF,PressureIn,WindDirection,WindDirectionDegrees,WindSpeedMPH,WindSpeedGustMPH,Humidity,HourlyPrecipIn,Conditions,Clouds,dailyrainin,SoftwareType,DateUTC
2013-01-09 00:00:00,39.1,36.1,30.35,NNE,16,0.0,0.0,89,0.00,,,0.00,LWC V2.00 B2112,2013-01-09 05:00:00,
2013-01-09 00:05:00,38.9,35.9,30.35,NNE,16,0.0,0.0,89,0.00,,,0.00,LWC V2.00 B2112,2013-01-09 05:05:00,
2013-01-09 00:10:00,38.9,35.9,30.35,NNE,16,0.0,0.0,89,0.00,,,0.00,LWC V2.00 B2112,2013-01-09 05:10:00,
2013-01-09 00:15:00,38.8,35.8,30.35,NNE,16,0.0,0.0,89,0.00,,,0.00,LWC V2.00 B2112,2013-01-09 05:15:00,
2013-01-09 00:20:00,38.5,35.5,30.35,NNE,16,0.0,0.0,89,0.00,,,0.00,LWC V2.00 B2112,2013-01-09 05:20:00,
2013-01-09 00:25:00,38.2,35.5,30.35,NNE,16,0.0,0.0,90,0.00,,,0.00,LWC V2.00 B2112,2013-01-09 05:25:00,
2013-01-09 00:30:00,38.0,35.3,30.35,NNE,16,0.0,0.0,90,0.00,,,0.00,LWC V2.00 B2112,2013-01-09 05:30:00,
2013-01-09 00:35:00,37.8,35.1,30.35,NNE,16,0.0,0.0,90,0.00,,,0.00,LWC V2.00 B2112,2013-01-09 05:35:00,
2013-01-09 00:40:00,37.8,35.1,30.35,NNE,16,0.0,0.0,90,0.00,,,0.00,LWC V2.00 B2112,2013-01-09 05:40:00,
2013-01-09 00:45:00,37.6,34.9,30.35,NNE,16,0.0,0.0,90,0.00,,,0.00,LWC V2.00 B2112,2013-01-09 05:45:00,
2013-01-09 00:50:00,37.6,35.2,30.35,NNE,16,0.0,0.0,91,0.00,,,0.00,LWC V2.00 B2112,2013-01-09 05:50:00,
2013-01-09 00:55:00,37.6,35.2,30.34,NNE,16,0.0,0.0,91,0.00,,,0.00,LWC V2.00 B2112,2013-01-09 05:55:00,
2013-01-09 01:00:00,37.6,35.2,30.34,NNE,16,0.0,0.0,91,0.00,,,0.00,LWC V2.00 B2112,2013-01-09 06:00:00,
2013-01-09 01:05:00,37.6,35.2,30.34,NNE,16,0.0,0.0,91,0.00,,,0.00,LWC V2.00 B2112,2013-01-09 06:05:00,
2013-01-09 01:10:00,37.8,35.7,30.34,NNE,16,0.0,0.0,92,0.00,,,0.00,LWC V2.00 B2112,2013-01-09 06:10:00,
2013-01-09 01:15:00,37.8,35.7,30.34,NNE,16,0.0,0.0,92,0.00,,,0.00,LWC V2.00 B2112,2013-01-09 06:15:00,
2013-01-09 01:20:00,37.9,35.8,30.34,NNE,16,0.0,0.0,92,0.00,,,0.00,LWC V2.00 B2112,2013-01-09 06:20:00,
2013-01-09 01:25:00,37.9,35.8,30.34,NNE,17,0.0,0.0,92,0.00,,,0.00,LWC V2.00 B2112,2013-01-09 06:25:00,
2013-01-09 01:30:00,38.0,35.9,30.34,NNE,16,0.0,0.0,92,0.00,,,0.00,LWC V2.00 B2112,2013-01-09 06:30:00,
2013-01-09 01:35:00,37.9,35.8,30.34,NNE,16,0.0,0.0,92,0.00,,,0.00,LWC V2.00 B2112,2013-01-09 06:35:00,
2013-01-09 01:40:00,37.9,35.8,30.34,NNE,17,0.0,0.0,92,0.00,,,0.00,LWC V2.00 B2112,2013-01-09 06:40:00,
2013-01-09 01:45:00,37.9,35.8,30.34,NNE,16,0.0,0.0,92,0.00,,,0.00,LWC V2.00 B2112,2013-01-09 06:45:00,
2013-01-09 01:50:00,37.8,35.7,30.34,NNE,16,0.0,0.0,92,0.00,,,0.00,LWC V2.00 B2112,2013-01-09 06:50:00,
2013-01-09 01:55:00,37.8,35.7,30.33,NNE,16,0.0,0.0,92,0.00,,,0.00,LWC V2.00 B2112,2013-01-09 06:55:00,
2013-01-09 02:00:00,37.8,35.7,30.33,NNE,16,0.0,0.0,92,0.00,,,0.00,LWC V2.00 B2112,2013-01-09 07:00:00,
2013-01-09 02:05:00,37.8,35.7,30.33,NNE,16,0.0,0.0,92,0.00,,,0.00,LWC V2.00 B2112,2013-01-09 07:05:00,
2013-01-09 02:10:00,37.6,35.5,30.33,NNE,16,0.0,0.0,92,0.00,,,0.00,LWC V2.00 B2112,2013-01-09 07:10:00,
2013-01-09 02:15:00,37.5,35.4,30.33,NNE,16,0.0,0.0,92,0.00,,,0.00,LWC V2.00 B2112,2013-01-09 07:15:00,
2013-01-09 02:20:00,37.3,35.2,30.33,NNE,16,0.0,0.0,92,0.00,,,0.00,LWC V2.00 B2112,2013-01-09 07:20:00,
2013-01-09 02:25:00,37.2,35.1,30.34,NNE,16,0.0,0.0,92,0.00,,,0.00,LWC V2.00 B2112,2013-01-09 07:25:00,
2013-01-09 02:30:00,37.2,35.1,30.34,NNE,16,0.0,0.0,92,0.00,,,0.00,LWC V2.00 B2112,2013-01-09 07:30:00,
2013-01-09 02:35:00,37.0,34.9,30.34,NNE,16,0.0,0.0,92,0.00,,,0.00,LWC V2.00 B2112,2013-01-09 07:35:00,
2013-01-09 02:40:00,36.9,34.8,30.34,NNE,16,0.0,0.0,92,0.00,,,0.00,LWC V2.00 B2112,2013-01-09 07:40:00,
2013-01-09 02:45:00,36.8,34.7,30.34,NNE,16,0.0,0.0,92,0.00,,,0.00,LWC V2.00 B2112,2013-01-09 07:45:00,
2013-01-09 02:50:00,36.6,34.5,30.34,NNE,16,0.0,0.0,92,0.00,,,0.00,LWC V2.00 B2112,2013-01-09 07:50:00,
2013-01-09 02:55:00,36.6,34.5,30.35,NNE,16,0.0,0.0,92,0.00,,,0.00,LWC V2.00 B2112,2013-01-09 07:55:00,
2013-01-09 03:00:00,36.6,34.5,30.35,NNE,16,0.0,0.0,92,0.00,,,0.00,LWC V2.00 B2112,2013-01-09 08:00:00,
2013-01-09 03:05:00,36.5,34.4,30.35,NNE,16,0.0,0.0,92,0.00,,,0.00,LWC V2.00 B2112,2013-01-09 08:05:00,
2013-01-09 03:10:00,36.5,34.4,30.35,NNE,16,0.0,0.0,92,0.00,,,0.00,LWC V2.00 B2112,2013-01-09 08:10:00,
2013-01-09 03:15:00,36.5,34.4,30.35,NNE,17,0.0,0.0,92,0.00,,,0.00,LWC V2.00 B2112,2013-01-09 08:15:00,
2013-01-09 03:20:00,36.5,34.4,30.35,NNE,16,0.0,0.0,92,0.00,,,0.00,LWC V2.00 B2112,2013-01-09 08:20:00,
2013-01-09 03:25:00,36.5,34.4,30.36,NNE,16,0.0,0.0,92,0.00,,,0.00,LWC V2.00 B2112,2013-01-09 08:25:00,
2013-01-09 03:30:00,36.3,34.2,30.36,NNE,16,0.0,0.0,92,0.00,,,0.00,LWC V2.00 B2112,2013-01-09 08:30:00,
2013-01-09 03:35:00,36.3,34.2,30.36,NNE,16,0.0,0.0,92,0.00,,,0.00,LWC V2.00 B2112,2013-01-09 08:35:00,
2013-01-09 03:40:00,36.2,34.1,30.36,NNE,16,0.0,0.0,92,0.00,,,0.00,LWC V2.00 B2112,2013-01-09 08:40:00,
2013-01-09 03:45:00,36.0,33.9,30.36,NNE,16,0.0,0.0,92,0.00,,,0.00,LWC V2.00 B2112,2013-01-09 08:45:00,
2013-01-09 03:50:00,36.0,34.2,30.36,NNE,16,0.0,0.0,93,0.00,,,0.00,LWC V2.00 B2112,2013-01-09 08:50:00,
2013-01-09 03:55:00,36.0,34.2,30.35,NNE,16,0.0,0.0,93,0.00,,,0.00,LWC V2.00 B2112,2013-01-09 08:55:00,
2013-01-09 04:00:00,36.0,34.2,30.35,NNE,16,0.0,0.0,93,0.00,,,0.00,LWC V2.00 B2112,2013-01-09 09:00:00,
2013-01-09 04:05:00,35.9,34.1,30.35,NNE,16,0.0,0.0,93,0.00,,,0.00,LWC V2.00 B2112,2013-01-09 09:05:00,
2013-01-09 04:10:00,35.9,34.1,30.34,NNE,16,0.0,0.0,93,0.00,,,0.00,LWC V2.00 B2112,2013-01-09 09:10:00,
2013-01-09 04:15:00,35.9,34.1,30.34,NNE,17,0.0,0.0,93,0.00,,,0.00,LWC V2.00 B2112,2013-01-09 09:15:00,
2013-01-09 04:20:00,35.9,34.1,30.34,NNE,17,0.0,0.0,93,0.00,,,0.00,LWC V2.00 B2112,2013-01-09 09:20:00,
2013-01-09 04:25:00,35.8,34.0,30.34,NNE,16,0.0,0.0,93,0.00,,,0.00,LWC V2.00 B2112,2013-01-09 09:25:00,
2013-01-09 04:30:00,35.6,33.8,30.34,NNE,16,0.0,0.0,93,0.00,,,0.00,LWC V2.00 B2112,2013-01-09 09:30:00,
2013-01-09 04:35:00,35.6,33.8,30.34,NNE,16,0.0,0.0,93,0.00,,,0.00,LWC V2.00 B2112,2013-01-09 09:35:00,
2013-01-09 04:40:00,35.6,33.8,30.34,NNE,16,0.0,0.0,93,0.00,,,0.00,LWC V2.00 B2112,2013-01-09 09:40:00,
2013-01-09 04:45:00,35.5,33.7,30.34,NNE,16,0.0,0.0,93,0.00,,,0.00,LWC V2.00 B2112,2013-01-09 09:45:00,
2013-01-09 04:50:00,35.5,33.7,30.34,NNE,16,0.0,0.0,93,0.00,,,0.00,LWC V2.00 B2112,2013-01-09 09:50:00,
2013-01-09 04:55:00,35.3,33.5,30.34,NNE,16,0.0,0.0,93,0.00,,,0.00,LWC V2.00 B2112,2013-01-09 09:55:00,
2013-01-09 05:00:00,35.3,33.5,30.34,NNE,16,0.0,0.0,93,0.00,,,0.00,LWC V2.00 B2112,2013-01-09 10:00:00,
2013-01-09 05:05:00,35.2,33.4,30.34,NNE,16,0.0,0.0,93,0.00,,,0.00,LWC V2.00 B2112,2013-01-09 10:05:00,
2013-01-09 05:10:00,35.0,33.2,30.34,NNE,16,0.0,0.0,93,0.00,,,0.00,LWC V2.00 B2112,2013-01-09 10:10:00,
2013-01-09 05:15:00,35.0,33.2,30.34,NNE,16,0.0,0.0,93,0.00,,,0.00,LWC V2.00 B2112,2013-01-09 10:15:00,
2013-01-09 05:20:00,34.9,33.1,30.34,NNE,16,0.0,0.0,93,0.00,,,0.00,LWC V2.00 B2112,2013-01-09 10:20:00,
2013-01-09 05:25:00,34.9,33.1,30.34,NNE,16,0.0,0.0,93,0.00,,,0.00,LWC V2.00 B2112,2013-01-09 10:25:00,
2013-01-09 05:30:00,34.7,32.9,30.34,NNE,16,0.0,0.0,93,0.00,,,0.00,LWC V2.00 B2112,2013-01-09 10:30:00,
2013-01-09 05:35:00,34.6,32.8,30.34,NNE,16,0.0,0.0,93,0.00,,,0.00,LWC V2.00 B2112,2013-01-09 10:35:00,
2013-01-09 05:40:00,34.4,32.6,30.35,NNE,16,0.0,0.0,93,0.00,,,0.00,LWC V2.00 B2112,2013-01-09 10:40:00,
2013-01-09 05:45:00,34.3,32.5,30.35,NNE,16,0.0,0.0,93,0.00,,,0.00,LWC V2.00 B2112,2013-01-09 10:45:00,
2013-01-09 05:50:00,34.3,32.5,30.35,NNE,16,0.0,0.0,93,0.00,,,0.00,LWC V2.00 B2112,2013-01-09 10:50:00,
2013-01-09 05:55:00,34.3,32.5,30.35,NNE,16,0.0,0.0,93,0.00,,,0.00,LWC V2.00 B2112,2013-01-09 10:55:00,
2013-01-09 06:00:00,34.1,32.3,30.35,NNE,16,0.0,0.0,93,0.00,,,0.00,LWC V2.00 B2112,2013-01-09 11:00:00,
2013-01-09 06:05:00,34.1,32.3,30.35,NNE,16,0.0,0.0,93,0.00,,,0.00,LWC V2.00 B2112,2013-01-09 11:05:00,
2013-01-09 06:10:00,34.0,32.2,30.35,NNE,16,0.0,0.0,93,0.00,,,0.00,LWC V2.00 B2112,2013-01-09 11:10:00,
2013-01-09 06:15:00,34.0,32.5,30.35,NNE,16,0.0,0.0,94,0.00,,,0.00,LWC V2.00 B2112,2013-01-09 11:15:00,
2013-01-09 06:20:00,34.1,32.6,30.35,NNE,16,0.0,0.0,94,0.00,,,0.00,LWC V2.00 B2112,2013-01-09 11:20:00,
2013-01-09 06:25:00,34.1,32.6,30.35,NNE,16,0.0,0.0,94,0.00,,,0.00,LWC V2.00 B2112,2013-01-09 11:25:00,
2013-01-09 06:30:00,34.0,32.2,30.35,NNE,16,0.0,0.0,93,0.00,,,0.00,LWC V2.00 B2112,2013-01-09 11:30:00,
2013-01-09 06:35:00,34.0,32.2,30.35,NNE,16,0.0,0.0,93,0.00,,,0.00,LWC V2.00 B2112,2013-01-09 11:35:00,
2013-01-09 06:40:00,34.0,32.5,30.35,NNE,16,0.0,0.0,94,0.00,,,0.00,LWC V2.00 B2112,2013-01-09 11:40:00,
2013-01-09 06:45:00,33.8,32.0,30.35,NNE,16,0.0,0.0,93,0.00,,,0.00,LWC V2.00 B2112,2013-01-09 11:45:00,
2013-01-09 06:50:00,33.7,31.9,30.35,NNE,16,0.0,0.0,93,0.00,,,0.00,LWC V2.00 B2112,2013-01-09 11:50:00,
2013-01-09 06:55:00,33.7,32.2,30.36,NNE,16,0.0,0.0,94,0.00,,,0.00,LWC V2.00 B2112,2013-01-09 11:55:00,
2013-01-09 07:00:00,33.7,32.2,30.36,NNE,16,0.0,0.0,94,0.00,,,0.00,LWC V2.00 B2112,2013-01-09 12:00:00,
2013-01-09 07:05:00,33.5,32.0,30.36,NNE,16,0.0,0.0,94,0.00,,,0.00,LWC V2.00 B2112,2013-01-09 12:05:00,
2013-01-09 07:10:00,33.5,32.0,30.36,NNE,16,0.0,0.0,94,0.00,,,0.00,LWC V2.00 B2112,2013-01-09 12:10:00,
2013-01-09 07:15:00,33.5,32.0,30.36,NNE,16,0.0,0.0,94,0.00,,,0.00,LWC V2.00 B2112,2013-01-09 12:15:00,
2013-01-09 07:20:00,33.5,32.0,30.36,NNE,16,0.0,0.0,94,0.00,,,0.00,LWC V2.00 B2112,2013-01-09 12:20:00,
2013-01-09 07:25:00,33.4,31.9,30.37,NNE,16,0.0,0.0,94,0.00,,,0.00,LWC V2.00 B2112,2013-01-09 12:25:00,
2013-01-09 07:30:00,33.2,31.7,30.37,NNE,16,0.0,0.0,94,0.00,,,0.00,LWC V2.00 B2112,2013-01-09 12:30:00,
2013-01-09 07:35:00,33.2,31.7,30.37,NNE,16,0.0,0.0,94,0.00,,,0.00,LWC V2.00 B2112,2013-01-09 12:35:00,
2013-01-09 07:40:00,33.2,31.7,30.38,NNE,16,0.0,0.0,94,0.00,,,0.00,LWC V2.00 B2112,2013-01-09 12:40:00,
2013-01-09 07:45:00,33.1,31.6,30.38,NNE,16,0.0,0.0,94,0.00,,,0.00,LWC V2.00 B2112,2013-01-09 12:45:00,
2013-01-09 07:50:00,33.1,31.6,30.38,NNE,16,0.0,0.0,94,0.00,,,0.00,LWC V2.00 B2112,2013-01-09 12:50:00,
2013-01-09 07:55:00,33.1,31.6,30.39,NNE,16,0.0,0.0,94,0.00,,,0.00,LWC V2.00 B2112,2013-01-09 12:55:00,
2013-01-09 08:00:00,33.2,31.7,30.39,NNE,16,0.0,0.0,94,0.00,,,0.00,LWC V2.00 B2112,2013-01-09 13:00:00,
2013-01-09 08:05:00,33.4,32.1,30.39,NNE,16,0.0,0.0,95,0.00,,,0.00,LWC V2.00 B2112,2013-01-09 13:05:00,
2013-01-09 08:10:00,33.5,32.2,30.39,NNE,16,0.0,0.0,95,0.00,,,0.00,LWC V2.00 B2112,2013-01-09 13:10:00,
2013-01-09 08:15:00,33.7,32.4,30.39,NNE,16,0.0,0.0,95,0.00,,,0.00,LWC V2.00 B2112,2013-01-09 13:15:00,
2013-01-09 08:20:00,33.8,32.5,30.39,NNE,16,0.0,0.0,95,0.00,,,0.00,LWC V2.00 B2112,2013-01-09 13:20:00,
2013-01-09 08:25:00,34.0,32.7,30.39,NNE,16,0.0,0.0,95,0.00,,,0.00,LWC V2.00 B2112,2013-01-09 13:25:00,
2013-01-09 08:30:00,34.1,32.8,30.39,NNE,16,0.0,0.0,95,0.00,,,0.00,LWC V2.00 B2112,2013-01-09 13:30:00,
2013-01-09 08:35:00,34.3,33.0,30.39,NNE,16,0.0,0.0,95,0.00,,,0.00,LWC V2.00 B2112,2013-01-09 13:35:00,
2013-01-09 08:40:00,34.6,33.3,30.40,NNE,16,0.0,0.0,95,0.00,,,0.00,LWC V2.00 B2112,2013-01-09 13:40:00,
2013-01-09 08:45:00,34.9,33.9,30.40,NNE,16,0.0,0.0,96,0.00,,,0.00,LWC V2.00 B2112,2013-01-09 13:45:00,
2013-01-09 08:50:00,35.2,34.2,30.40,NNE,17,0.0,0.0,96,0.00,,,0.00,LWC V2.00 B2112,2013-01-09 13:50:00,
2013-01-09 08:55:00,35.5,34.5,30.40,NNE,16,0.0,0.0,96,0.00,,,0.00,LWC V2.00 B2112,2013-01-09 13:55:00,
2013-01-09 09:00:00,35.6,34.6,30.40,NNE,16,0.0,0.0,96,0.00,,,0.00,LWC V2.00 B2112,2013-01-09 14:00:00,
2013-01-09 09:05:00,35.9,34.9,30.40,NNE,16,0.0,0.0,96,0.00,,,0.00,LWC V2.00 B2112,2013-01-09 14:05:00,
2013-01-09 09:10:00,36.2,35.2,30.40,NNE,16,0.0,0.0,96,0.00,,,0.00,LWC V2.00 B2112,2013-01-09 14:10:00,
2013-01-09 09:15:00,36.6,35.6,30.40,NNE,16,0.0,0.0,96,0.00,,,0.00,LWC V2.00 B2112,2013-01-09 14:15:00,
2013-01-09 09:20:00,37.2,36.4,30.40,NNE,16,0.0,0.0,97,0.00,,,0.00,LWC V2.00 B2112,2013-01-09 14:20:00,
2013-01-09 09:25:00,38.0,37.2,30.40,NNE,17,0.0,0.0,97,0.00,,,0.00,LWC V2.00 B2112,2013-01-09 14:25:00,
2013-01-09 09:30:00,38.5,37.7,30.40,NNE,16,0.0,0.0,97,0.00,,,0.00,LWC V2.00 B2112,2013-01-09 14:30:00,
2013-01-09 09:35:00,39.2,38.4,30.40,NNE,16,0.0,0.0,97,0.00,,,0.00,LWC V2.00 B2112,2013-01-09 14:35:00,
2013-01-09 09:40:00,40.1,39.6,30.40,NNE,16,0.0,0.0,98,0.00,,,0.00,LWC V2.00 B2112,2013-01-09 14:40:00,
2013-01-09 09:45:00,40.8,40.3,30.40,NNE,16,0.0,0.0,98,0.00,,,0.00,LWC V2.00 B2112,2013-01-09 14:45:00,
2013-01-09 09:50:00,41.6,41.1,30.40,NNE,17,0.0,0.0,98,0.00,,,0.00,LWC V2.00 B2112,2013-01-09 14:50:00,
2013-01-09 09:55:00,42.3,41.8,30.40,NNE,16,0.0,0.0,98,0.00,,,0.00,LWC V2.00 B2112,2013-01-09 14:55:00,
2013-01-09 10:00:00,43.2,42.7,30.40,NNE,17,0.0,0.0,98,0.00,,,0.00,LWC V2.00 B2112,2013-01-09 15:00:00,
2013-01-09 10:05:00,43.9,43.1,30.40,NNE,16,0.0,0.0,97,0.00,,,0.00,LWC V2.00 B2112,2013-01-09 15:05:00,
2013-01-09 10:10:00,44.9,44.1,30.40,NNE,16,0.0,0.0,97,0.00,,,0.00,LWC V2.00 B2112,2013-01-09 15:10:00,
2013-01-09 10:15:00,45.8,44.7,30.40,NNE,16,0.0,0.0,96,0.00,,,0.00,LWC V2.00 B2112,2013-01-09 15:15:00,
2013-01-09 10:20:00,46.8,45.7,30.40,NNE,16,0.0,0.0,96,0.00,,,0.00,LWC V2.00 B2112,2013-01-09 15:20:00,
2013-01-09 10:25:00,47.9,46.0,30.40,NNE,16,0.0,0.0,93,0.00,,,0.00,LWC V2.00 B2112,2013-01-09 15:25:00,
2013-01-09 10:30:00,48.9,46.1,30.40,NNE,16,0.0,0.0,90,0.00,,,0.00,LWC V2.00 B2112,2013-01-09 15:30:00,
2013-01-09 10:35:00,51.0,45.0,30.40,NNE,16,0.0,0.0,80,0.00,,,0.00,LWC V2.00 B2112,2013-01-09 15:35:00,
2013-01-09 10:40:00,54.1,45.3,30.41,NNE,16,0.0,0.0,72,0.00,,,0.00,LWC V2.00 B2112,2013-01-09 15:40:00,
2013-01-09 10:45:00,55.6,45.2,30.41,NNE,16,0.0,0.0,68,0.00,,,0.00,LWC V2.00 B2112,2013-01-09 15:45:00,
2013-01-09 10:50:00,56.3,44.3,30.41,NNE,16,0.0,0.0,64,0.00,,,0.00,LWC V2.00 B2112,2013-01-09 15:50:00,
2013-01-09 10:55:00,57.3,44.8,30.40,NNE,16,0.0,0.0,63,0.00,,,0.00,LWC V2.00 B2112,2013-01-09 15:55:00,
2013-01-09 11:00:00,58.0,45.5,30.40,NNE,16,0.0,0.0,63,0.00,,,0.00,LWC V2.00 B2112,2013-01-09 16:00:00,
2013-01-09 11:05:00,58.7,46.6,30.40,NNE,17,0.0,1.0,64,0.00,,,0.00,LWC V2.00 B2112,2013-01-09 16:05:00,
2013-01-09 11:10:00,58.9,45.9,30.40,NNE,16,0.0,0.0,62,0.00,,,0.00,LWC V2.00 B2112,2013-01-09 16:10:00,
2013-01-09 11:15:00,59.2,46.2,30.40,NNE,16,0.0,1.0,62,0.00,,,0.00,LWC V2.00 B2112,2013-01-09 16:15:00,
2013-01-09 11:20:00,59.6,47.4,30.40,NNE,16,0.0,0.0,64,0.00,,,0.00,LWC V2.00 B2112,2013-01-09 16:20:00,
2013-01-09 11:25:00,60.1,47.9,30.39,NNE,16,0.0,0.0,64,0.00,,,0.00,LWC V2.00 B2112,2013-01-09 16:25:00,
2013-01-09 11:30:00,60.4,47.7,30.39,NNW,332,1.0,1.0,63,0.00,,,0.00,LWC V2.00 B2112,2013-01-09 16:30:00,
2013-01-09 11:35:00,60.5,47.8,30.39,NNW,333,0.0,0.0,63,0.00,,,0.00,LWC V2.00 B2112,2013-01-09 16:35:00,
2013-01-09 11:40:00,60.5,47.4,30.38,NNW,333,0.0,1.0,62,0.00,,,0.00,LWC V2.00 B2112,2013-01-09 16:40:00,
2013-01-09 11:45:00,60.9,47.4,30.38,NNW,333,0.0,1.0,61,0.00,,,0.00,LWC V2.00 B2112,2013-01-09 16:45:00,
2013-01-09 11:50:00,61.2,46.8,30.38,NW,317,0.0,1.0,59,0.00,,,0.00,LWC V2.00 B2112,2013-01-09 16:50:00,
2013-01-09 11:55:00,61.6,46.7,30.38,NW,319,0.0,1.0,58,0.00,,,0.00,LWC V2.00 B2112,2013-01-09 16:55:00,
2013-01-09 12:00:00,62.0,47.0,30.38,NW,319,0.0,1.0,58,0.00,,,0.00,LWC V2.00 B2112,2013-01-09 17:00:00,
2013-01-09 12:05:00,62.7,47.7,30.38,NW,319,0.0,1.0,58,0.00,,,0.00,LWC V2.00 B2112,2013-01-09 17:05:00,
2013-01-09 12:10:00,63.4,47.9,30.37,NW,319,0.0,0.0,57,0.00,,,0.00,LWC V2.00 B2112,2013-01-09 17:10:00,
2013-01-09 12:15:00,63.7,48.6,30.37,NW,319,0.0,0.0,58,0.00,,,0.00,LWC V2.00 B2112,2013-01-09 17:15:00,
2013-01-09 12:20:00,64.0,48.9,30.37,NW,316,0.0,0.0,58,0.00,,,0.00,LWC V2.00 B2112,2013-01-09 17:20:00,
2013-01-09 12:25:00,64.2,48.2,30.35,NW,316,0.0,0.0,56,0.00,,,0.00,LWC V2.00 B2112,2013-01-09 17:25:00,
2013-01-09 12:30:00,64.2,48.6,30.35,NW,316,0.0,0.0,57,0.00,,,0.00,LWC V2.00 B2112,2013-01-09 17:30:00,
2013-01-09 12:35:00,64.3,48.7,30.35,NW,316,0.0,1.0,57,0.00,,,0.00,LWC V2.00 B2112,2013-01-09 17:35:00,
2013-01-09 12:40:00,64.5,48.4,30.35,NW,316,0.0,1.0,56,0.00,,,0.00,LWC V2.00 B2112,2013-01-09 17:40:00,
2013-01-09 12:45:00,64.7,49.1,30.35,SSW,194,0.0,0.0,57,0.00,,,0.00,LWC V2.00 B2112,2013-01-09 17:45:00,
2013-01-09 12:50:00,64.8,49.2,30.35,SSW,200,0.0,1.0,57,0.00,,,0.00,LWC V2.00 B2112,2013-01-09 17:50:00,
2013-01-09 12:55:00,65.3,49.7,30.33,South,186,0.0,1.0,57,0.00,,,0.00,LWC V2.00 B2112,2013-01-09 17:55:00,
2013-01-09 13:00:00,65.6,49.5,30.33,NNW,327,0.0,1.0,56,0.00,,,0.00,LWC V2.00 B2112,2013-01-09 18:00:00,
2013-01-09 13:05:00,66.0,49.8,30.33,West,281,0.0,1.0,56,0.00,,,0.00,LWC V2.00 B2112,2013-01-09 18:05:00,
2013-01-09 13:10:00,66.3,50.1,30.33,West,274,0.0,1.0,56,0.00,,,0.00,LWC V2.00 B2112,2013-01-09 18:10:00,
2013-01-09 13:15:00,66.6,49.4,30.33,SW,236,0.0,1.0,54,0.00,,,0.00,LWC V2.00 B2112,2013-01-09 18:15:00,
2013-01-09 13:20:00,67.1,49.9,30.33,NE,34,0.0,0.0,54,0.00,,,0.00,LWC V2.00 B2112,2013-01-09 18:20:00,
2013-01-09 13:25:00,67.4,49.7,30.33,NE,34,0.0,0.0,53,0.00,,,0.00,LWC V2.00 B2112,2013-01-09 18:25:00,
2013-01-09 13:30:00,67.6,50.4,30.33,North,351,0.0,1.0,54,0.00,,,0.00,LWC V2.00 B2112,2013-01-09 18:30:00,
2013-01-09 13:35:00,67.6,49.8,30.33,North,350,0.0,1.0,53,0.00,,,0.00,LWC V2.00 B2112,2013-01-09 18:35:00,
2013-01-09 13:40:00,67.8,49.5,30.32,NNW,340,1.0,2.0,52,0.00,,,0.00,LWC V2.00 B2112,2013-01-09 18:40:00,
2013-01-09 13:41:00,67.8,49.5,30.32,NNW,340,0.0,2.0,52,0.00,,,0.00,LWC V2.00 B2112,2013-01-09 18:41:00,
2013-01-09 13:44:00,68.1,50.3,30.32,NNW,340,0.0,0.0,53,0.00,,,0.00,LWC V2.00 B2112,2013-01-09 18:44:00,
2013-01-09 13:48:00,68.4,49.6,30.32,NNW,340,0.0,1.0,51,0.00,,,0.00,LWC V2.00 B2112,2013-01-09 18:48:00,
2013-01-09 13:53:00,68.4,49.6,30.32,NNW,340,0.0,1.0,51,0.00,,,0.00,LWC V2.00 B2112,2013-01-09 18:53:00,
2013-01-09 13:58:00,68.1,49.3,30.32,NW,310,0.0,1.0,51,0.00,,,0.00,LWC V2.00 B2112,2013-01-09 18:58:00,
2013-01-09 14:03:00,67.6,48.8,30.32,NW,310,0.0,1.0,51,0.00,,,0.00,LWC V2.00 B2112,2013-01-09 19:03:00,
2013-01-09 14:08:00,67.3,48.5,30.32,NW,310,0.0,1.0,51,0.00,,,0.00,LWC V2.00 B2112,2013-01-09 19:08:00,
2013-01-09 14:13:00,66.9,49.2,30.32,NW,310,0.0,0.0,53,0.00,,,0.00,LWC V2.00 B2112,2013-01-09 19:13:00,
2013-01-09 14:18:00,66.8,49.1,30.32,NW,310,0.0,0.0,53,0.00,,,0.00,LWC V2.00 B2112,2013-01-09 19:18:00,
2013-01-09 14:23:00,66.6,48.9,30.31,NW,310,0.0,1.0,53,0.00,,,0.00,LWC V2.00 B2112,2013-01-09 19:23:00,
2013-01-09 14:28:00,66.6,48.9,30.31,NW,310,0.0,0.0,53,0.00,,,0.00,LWC V2.00 B2112,2013-01-09 19:28:00,
2013-01-09 14:33:00,66.6,48.9,30.31,NW,310,0.0,0.0,53,0.00,,,0.00,LWC V2.00 B2112,2013-01-09 19:33:00,
2013-01-09 14:38:00,66.8,49.1,30.31,NW,310,0.0,1.0,53,0.00,,,0.00,LWC V2.00 B2112,2013-01-09 19:38:00,
2013-01-09 14:43:00,66.8,49.1,30.31,NW,310,0.0,0.0,53,0.00,,,0.00,LWC V2.00 B2112,2013-01-09 19:43:00,
2013-01-09 14:48:00,66.9,48.2,30.31,NW,310,0.0,0.0,51,0.00,,,0.00,LWC V2.00 B2112,2013-01-09 19:48:00,
2013-01-09 14:53:00,67.1,48.4,30.31,NW,310,0.0,0.0,51,0.00,,,0.00,LWC V2.00 B2112,2013-01-09 19:53:00,
2013-01-09 14:58:00,67.1,48.4,30.31,NW,310,0.0,1.0,51,0.00,,,0.00,LWC V2.00 B2112,2013-01-09 19:58:00,
2013-01-09 15:03:00,67.1,48.4,30.31,NW,310,0.0,0.0,51,0.00,,,0.00,LWC V2.00 B2112,2013-01-09 20:03:00,
2013-01-09 15:08:00,67.3,48.5,30.32,NW,310,0.0,0.0,51,0.00,,,0.00,LWC V2.00 B2112,2013-01-09 20:08:00,
2013-01-09 15:13:00,67.1,48.4,30.32,NW,310,0.0,0.0,51,0.00,,,0.00,LWC V2.00 B2112,2013-01-09 20:13:00,
2013-01-09 15:18:00,66.9,48.7,30.32,NW,310,0.0,1.0,52,0.00,,,0.00,LWC V2.00 B2112,2013-01-09 20:18:00,
2013-01-09 15:23:00,66.8,49.1,30.32,NW,310,0.0,0.0,53,0.00,,,0.00,LWC V2.00 B2112,2013-01-09 20:23:00,
2013-01-09 15:28:00,66.6,48.4,30.32,NW,310,0.0,0.0,52,0.00,,,0.00,LWC V2.00 B2112,2013-01-09 20:28:00,
2013-01-09 15:33:00,66.6,48.9,30.32,NW,310,0.0,0.0,53,0.00,,,0.00,LWC V2.00 B2112,2013-01-09 20:33:00,
2013-01-09 15:38:00,66.6,48.9,30.32,NW,310,0.0,0.0,53,0.00,,,0.00,LWC V2.00 B2112,2013-01-09 20:38:00,
2013-01-09 15:43:00,66.4,49.2,30.32,NW,310,0.0,0.0,54,0.00,,,0.00,LWC V2.00 B2112,2013-01-09 20:43:00,
2013-01-09 15:48:00,66.4,49.2,30.32,NW,310,0.0,0.0,54,0.00,,,0.00,LWC V2.00 B2112,2013-01-09 20:48:00,
2013-01-09 15:53:00,66.3,49.6,30.32,NW,310,0.0,0.0,55,0.00,,,0.00,LWC V2.00 B2112,2013-01-09 20:53:00,
2013-01-09 15:58:00,66.0,50.3,30.32,NW,310,0.0,0.0,57,0.00,,,0.00,LWC V2.00 B2112,2013-01-09 20:58:00,
2013-01-09 16:03:00,65.8,50.1,30.32,NW,310,0.0,0.0,57,0.00,,,0.00,LWC V2.00 B2112,2013-01-09 21:03:00,
2013-01-09 16:08:00,65.5,50.8,30.32,NW,310,0.0,0.0,59,0.00,,,0.00,LWC V2.00 B2112,2013-01-09 21:08:00,
2013-01-09 16:13:00,65.3,50.6,30.32,NW,310,0.0,0.0,59,0.00,,,0.00,LWC V2.00 B2112,2013-01-09 21:13:00,
2013-01-09 16:18:00,65.0,50.3,30.32,NW,310,0.0,0.0,59,0.00,,,0.00,LWC V2.00 B2112,2013-01-09 21:18:00,
2013-01-09 16:23:00,64.8,50.6,30.32,NW,310,0.0,0.0,60,0.00,,,0.00,LWC V2.00 B2112,2013-01-09 21:23:00,
2013-01-09 16:28:00,64.7,50.5,30.32,NW,310,0.0,0.0,60,0.00,,,0.00,LWC V2.00 B2112,2013-01-09 21:28:00,
2013-01-09 16:33:00,64.3,50.1,30.32,NW,310,0.0,0.0,60,0.00,,,0.00,LWC V2.00 B2112,2013-01-09 21:33:00,
2013-01-09 16:38:00,64.0,50.3,30.32,NW,310,0.0,0.0,61,0.00,,,0.00,LWC V2.00 B2112,2013-01-09 21:38:00,
2013-01-09 16:43:00,63.7,50.4,30.32,NW,310,0.0,0.0,62,0.00,,,0.00,LWC V2.00 B2112,2013-01-09 21:43:00,
2013-01-09 16:48:00,63.4,50.6,30.32,NW,310,0.0,0.0,63,0.00,,,0.00,LWC V2.00 B2112,2013-01-09 21:48:00,
2013-01-09 16:53:00,62.9,50.5,30.32,NW,310,0.0,0.0,64,0.00,,,0.00,LWC V2.00 B2112,2013-01-09 21:53:00,
2013-01-09 16:58:00,62.6,50.2,30.32,NW,310,0.0,0.0,64,0.00,,,0.00,LWC V2.00 B2112,2013-01-09 21:58:00,
2013-01-09 17:03:00,62.1,49.8,30.32,NW,310,0.0,0.0,64,0.00,,,0.00,LWC V2.00 B2112,2013-01-09 22:03:00,
2013-01-09 17:08:00,61.6,49.7,30.33,NW,310,0.0,0.0,65,0.00,,,0.00,LWC V2.00 B2112,2013-01-09 22:08:00,
2013-01-09 17:13:00,61.2,49.3,30.33,NW,310,0.0,0.0,65,0.00,,,0.00,LWC V2.00 B2112,2013-01-09 22:13:00,
2013-01-09 17:18:00,60.7,49.7,30.33,NW,310,0.0,0.0,67,0.00,,,0.00,LWC V2.00 B2112,2013-01-09 22:18:00,
2013-01-09 17:23:00,60.2,49.6,30.33,NW,310,0.0,0.0,68,0.00,,,0.00,LWC V2.00 B2112,2013-01-09 22:23:00,
2013-01-09 17:28:00,59.9,49.3,30.33,NW,310,0.0,0.0,68,0.00,,,0.00,LWC V2.00 B2112,2013-01-09 22:28:00,
2013-01-09 17:33:00,59.6,49.4,30.33,NW,310,0.0,0.0,69,0.00,,,0.00,LWC V2.00 B2112,2013-01-09 22:33:00,
2013-01-09 17:38:00,59.3,49.1,30.33,NW,310,0.0,0.0,69,0.00,,,0.00,LWC V2.00 B2112,2013-01-09 22:38:00,
2013-01-09 17:43:00,58.7,48.9,30.33,NW,310,0.0,0.0,70,0.00,,,0.00,LWC V2.00 B2112,2013-01-09 22:43:00,
2013-01-09 17:48:00,58.3,49.3,30.33,NW,310,0.0,0.0,72,0.00,,,0.00,LWC V2.00 B2112,2013-01-09 22:48:00,
2013-01-09 17:53:00,58.0,49.4,30.32,NW,310,0.0,0.0,73,0.00,,,0.00,LWC V2.00 B2112,2013-01-09 22:53:00,
2013-01-09 17:58:00,57.6,49.0,30.32,NW,310,0.0,0.0,73,0.00,,,0.00,LWC V2.00 B2112,2013-01-09 22:58:00,
2013-01-09 18:03:00,57.5,48.9,30.32,NW,310,0.0,0.0,73,0.00,,,0.00,LWC V2.00 B2112,2013-01-09 23:03:00,
2013-01-09 18:08:00,57.2,49.0,30.32,NW,310,0.0,0.0,74,0.00,,,0.00,LWC V2.00 B2112,2013-01-09 23:08:00,
2013-01-09 18:13:00,56.9,49.1,30.32,NW,310,0.0,0.0,75,0.00,,,0.00,LWC V2.00 B2112,2013-01-09 23:13:00,
2013-01-09 18:18:00,56.7,49.2,30.32,NW,310,0.0,0.0,76,0.00,,,0.00,LWC V2.00 B2112,2013-01-09 23:18:00,
2013-01-09 18:23:00,56.6,48.8,30.32,NW,310,0.0,0.0,75,0.00,,,0.00,LWC V2.00 B2112,2013-01-09 23:23:00,
2013-01-09 18:28:00,56.5,48.7,30.32,NW,310,0.0,0.0,75,0.00,,,0.00,LWC V2.00 B2112,2013-01-09 23:28:00,
2013-01-09 18:33:00,56.3,48.8,30.32,NW,310,0.0,0.0,76,0.00,,,0.00,LWC V2.00 B2112,2013-01-09 23:33:00,
2013-01-09 18:38:00,56.2,48.7,30.32,NW,310,0.0,0.0,76,0.00,,,0.00,LWC V2.00 B2112,2013-01-09 23:38:00,
2013-01-09 18:43:00,55.9,48.4,30.32,NW,310,0.0,0.0,76,0.00,,,0.00,LWC V2.00 B2112,2013-01-09 23:43:00,
2013-01-09 18:48:00,55.6,48.5,30.32,NW,310,0.0,0.0,77,0.00,,,0.00,LWC V2.00 B2112,2013-01-09 23:48:00,
2013-01-09 18:53:00,55.4,48.7,30.31,NW,310,0.0,0.0,78,0.00,,,0.00,LWC V2.00 B2112,2013-01-09 23:53:00,
2013-01-09 18:58:00,55.3,48.9,30.31,NW,310,0.0,0.0,79,0.00,,,0.00,LWC V2.00 B2112,2013-01-09 23:58:00,
2013-01-09 19:03:00,55.3,48.6,30.31,NW,310,0.0,0.0,78,0.00,,,0.00,LWC V2.00 B2112,2013-01-10 00:03:00,
2013-01-09 19:08:00,55.1,48.4,30.31,NW,310,0.0,0.0,78,0.00,,,0.00,LWC V2.00 B2112,2013-01-10 00:08:00,
2013-01-09 19:13:00,55.0,48.6,30.31,NW,310,0.0,0.0,79,0.00,,,0.00,LWC V2.00 B2112,2013-01-10 00:13:00,
2013-01-09 19:18:00,54.8,48.1,30.31,NW,310,0.0,0.0,78,0.00,,,0.00,LWC V2.00 B2112,2013-01-10 00:18:00,
2013-01-09 19:23:00,54.7,48.0,30.33,NW,310,0.0,0.0,78,0.00,,,0.00,LWC V2.00 B2112,2013-01-10 00:23:00,
2013-01-09 19:28:00,54.4,48.0,30.33,NW,310,0.0,0.0,79,0.00,,,0.00,LWC V2.00 B2112,2013-01-10 00:28:00,
2013-01-09 19:33:00,53.9,47.2,30.33,NW,310,0.0,0.0,78,0.00,,,0.00,LWC V2.00 B2112,2013-01-10 00:33:00,
2013-01-09 19:38:00,53.5,47.5,30.32,NW,310,0.0,0.0,80,0.00,,,0.00,LWC V2.00 B2112,2013-01-10 00:38:00,
2013-01-09 19:43:00,53.2,47.5,30.32,NW,310,0.0,0.0,81,0.00,,,0.00,LWC V2.00 B2112,2013-01-10 00:43:00,
2013-01-09 19:48:00,53.1,47.4,30.32,NW,310,0.0,0.0,81,0.00,,,0.00,LWC V2.00 B2112,2013-01-10 00:48:00,
2013-01-09 19:53:00,52.8,47.1,30.33,NW,310,0.0,0.0,81,0.00,,,0.00,LWC V2.00 B2112,2013-01-10 00:53:00,
2013-01-09 19:58:00,52.3,47.3,30.33,NW,310,0.0,0.0,83,0.00,,,0.00,LWC V2.00 B2112,2013-01-10 00:58:00,
2013-01-09 20:03:00,52.2,47.2,30.33,NW,310,0.0,0.0,83,0.00,,,0.00,LWC V2.00 B2112,2013-01-10 01:03:00,
2013-01-09 20:08:00,51.9,46.9,30.33,NW,310,0.0,0.0,83,0.00,,,0.00,LWC V2.00 B2112,2013-01-10 01:08:00,
2013-01-09 20:13:00,51.7,46.7,30.33,NW,310,0.0,0.0,83,0.00,,,0.00,LWC V2.00 B2112,2013-01-10 01:13:00,
2013-01-09 20:18:00,51.4,46.7,30.33,NW,310,0.0,0.0,84,0.00,,,0.00,LWC V2.00 B2112,2013-01-10 01:18:00,
2013-01-09 20:23:00,51.3,46.6,30.33,NW,310,0.0,0.0,84,0.00,,,0.00,LWC V2.00 B2112,2013-01-10 01:23:00,
2013-01-09 20:28:00,51.0,46.3,30.33,NW,310,0.0,0.0,84,0.00,,,0.00,LWC V2.00 B2112,2013-01-10 01:28:00,
2013-01-09 20:33:00,50.8,46.1,30.33,NW,310,0.0,0.0,84,0.00,,,0.00,LWC V2.00 B2112,2013-01-10 01:33:00,
2013-01-09 20:38:00,50.5,46.5,30.33,NW,310,0.0,0.0,86,0.00,,,0.00,LWC V2.00 B2112,2013-01-10 01:38:00,
2013-01-09 20:43:00,50.2,46.2,30.33,NW,310,0.0,0.0,86,0.00,,,0.00,LWC V2.00 B2112,2013-01-10 01:43:00,
2013-01-09 20:48:00,50.1,46.1,30.33,NW,310,0.0,0.0,86,0.00,,,0.00,LWC V2.00 B2112,2013-01-10 01:48:00,
2013-01-09 20:53:00,49.8,45.8,30.33,NW,310,0.0,0.0,86,0.00,,,0.00,LWC V2.00 B2112,2013-01-10 01:53:00,
2013-01-09 20:58:00,49.6,45.6,30.33,NW,310,0.0,0.0,86,0.00,,,0.00,LWC V2.00 B2112,2013-01-10 01:58:00,
2013-01-09 21:03:00,49.5,45.5,30.33,NW,310,0.0,0.0,86,0.00,,,0.00,LWC V2.00 B2112,2013-01-10 02:03:00,
2013-01-09 21:08:00,49.4,45.4,30.34,NW,310,0.0,0.0,86,0.00,,,0.00,LWC V2.00 B2112,2013-01-10 02:08:00,
2013-01-09 21:13:00,49.2,45.5,30.34,NW,310,0.0,0.0,87,0.00,,,0.00,LWC V2.00 B2112,2013-01-10 02:13:00,
2013-01-09 21:18:00,49.1,45.4,30.34,NW,310,0.0,0.0,87,0.00,,,0.00,LWC V2.00 B2112,2013-01-10 02:18:00,
2013-01-09 21:23:00,48.8,45.1,30.35,NW,310,0.0,0.0,87,0.00,,,0.00,LWC V2.00 B2112,2013-01-10 02:23:00,
2013-01-09 21:28:00,48.6,45.2,30.35,NW,310,0.0,0.0,88,0.00,,,0.00,LWC V2.00 B2112,2013-01-10 02:28:00,
2013-01-09 21:33:00,48.5,45.1,30.35,NW,310,0.0,0.0,88,0.00,,,0.00,LWC V2.00 B2112,2013-01-10 02:33:00,
2013-01-09 21:38:00,48.3,44.9,30.35,NW,310,0.0,0.0,88,0.00,,,0.00,LWC V2.00 B2112,2013-01-10 02:38:00,
2013-01-09 21:43:00,48.0,44.6,30.35,NW,310,0.0,0.0,88,0.00,,,0.00,LWC V2.00 B2112,2013-01-10 02:43:00,
2013-01-09 21:48:00,47.9,44.5,30.35,NW,310,0.0,0.0,88,0.00,,,0.00,LWC V2.00 B2112,2013-01-10 02:48:00,
2013-01-09 21:53:00,47.6,44.2,30.36,NW,309,0.0,0.0,88,0.00,,,0.00,LWC V2.00 B2112,2013-01-10 02:53:00,
2013-01-09 21:58:00,47.4,44.3,30.36,NW,310,0.0,0.0,89,0.00,,,0.00,LWC V2.00 B2112,2013-01-10 02:58:00,
2013-01-09 22:03:00,47.1,44.0,30.36,NW,310,0.0,0.0,89,0.00,,,0.00,LWC V2.00 B2112,2013-01-10 03:03:00,
2013-01-09 22:08:00,47.0,43.9,30.36,NW,310,0.0,0.0,89,0.00,,,0.00,LWC V2.00 B2112,2013-01-10 03:08:00,
2013-01-09 22:13:00,46.8,44.0,30.36,NW,310,0.0,0.0,90,0.00,,,0.00,LWC V2.00 B2112,2013-01-10 03:13:00,
2013-01-09 22:18:00,46.7,44.2,30.36,NW,310,0.0,0.0,91,0.00,,,0.00,LWC V2.00 B2112,2013-01-10 03:18:00,
2013-01-09 22:23:00,46.7,44.2,30.36,NW,310,0.0,0.0,91,0.00,,,0.00,LWC V2.00 B2112,2013-01-10 03:23:00,
2013-01-09 22:28:00,46.5,44.0,30.36,NW,310,0.0,0.0,91,0.00,,,0.00,LWC V2.00 B2112,2013-01-10 03:28:00,
2013-01-09 22:33:00,46.5,44.0,30.36,NW,310,0.0,0.0,91,0.00,,,0.00,LWC V2.00 B2112,2013-01-10 03:33:00,
2013-01-09 22:38:00,46.4,43.6,30.36,NW,310,0.0,0.0,90,0.00,,,0.00,LWC V2.00 B2112,2013-01-10 03:38:00,
2013-01-09 22:43:00,46.2,43.7,30.36,NW,310,0.0,0.0,91,0.00,,,0.00,LWC V2.00 B2112,2013-01-10 03:43:00,
2013-01-09 22:48:00,46.1,43.6,30.36,NW,310,0.0,0.0,91,0.00,,,0.00,LWC V2.00 B2112,2013-01-10 03:48:00,
2013-01-09 22:53:00,46.1,43.6,30.36,NW,310,0.0,0.0,91,0.00,,,0.00,LWC V2.00 B2112,2013-01-10 03:53:00,
2013-01-09 22:58:00,46.0,43.5,30.36,NW,310,0.0,0.0,91,0.00,,,0.00,LWC V2.00 B2112,2013-01-10 03:58:00,
2013-01-09 23:03:00,45.8,43.3,30.36,NW,310,0.0,0.0,91,0.00,,,0.00,LWC V2.00 B2112,2013-01-10 04:03:00,
2013-01-09 23:08:00,45.7,43.2,30.36,NW,310,0.0,0.0,91,0.00,,,0.00,LWC V2.00 B2112,2013-01-10 04:08:00,
2013-01-09 23:13:00,45.7,43.2,30.36,NW,310,0.0,0.0,91,0.00,,,0.00,LWC V2.00 B2112,2013-01-10 04:13:00,
2013-01-09 23:18:00,45.5,43.0,30.36,NW,310,0.0,0.0,91,0.00,,,0.00,LWC V2.00 B2112,2013-01-10 04:18:00,
2013-01-09 23:23:00,45.4,42.9,30.37,NW,310,0.0,0.0,91,0.00,,,0.00,LWC V2.00 B2112,2013-01-10 04:23:00,
2013-01-09 23:28:00,45.4,43.2,30.37,NW,310,0.0,0.0,92,0.00,,,0.00,LWC V2.00 B2112,2013-01-10 04:28:00,
2013-01-09 23:33:00,45.4,43.2,30.37,NW,310,0.0,0.0,92,0.00,,,0.00,LWC V2.00 B2112,2013-01-10 04:33:00,
2013-01-09 23:38:00,45.2,42.7,30.37,NW,310,0.0,0.0,91,0.00,,,0.00,LWC V2.00 B2112,2013-01-10 04:38:00,
2013-01-09 23:43:00,45.1,42.9,30.37,NW,310,0.0,0.0,92,0.00,,,0.00,LWC V2.00 B2112,2013-01-10 04:43:00,
2013-01-09 23:48:00,45.1,42.9,30.37,NW,310,0.0,0.0,92,0.00,,,0.00,LWC V2.00 B2112,2013-01-10 04:48:00,
2013-01-09 23:53:00,45.1,42.9,30.37,NW,310,0.0,0.0,92,0.00,,,0.00,LWC V2.00 B2112,2013-01-10 04:53:00,
2013-01-09 23:58:00,45.1,42.9,30.37,NW,310,0.0,0.0,92,0.00,,,0.00,LWC V2.00 B2112,2013-01-10 04:58:00,